sensor_id;sensor_type;location;lat;lon;timestamp;P1;durP1;ratioP1;P2;durP2;ratioP2
25663;SDS011;13522;50.018;20.014;2023-02-28T00:01:17;26.05;;;12.45;;
25663;SDS011;13522;50.018;20.014;2023-02-28T00:04:29;25.38;;;12.45;;
25663;SDS011;13522;50.018;20.014;2023-02-28T00:07:41;23.50;;;12.30;;
25663;SDS011;13522;50.018;20.014;2023-02-28T00:10:54;23.68;;;13.03;;
25663;SDS011;13522;50.018;20.014;2023-02-28T00:14:10;24.70;;;12.87;;
25663;SDS011;13522;50.018;20.014;2023-02-28T00:17:23;27.53;;;12.80;;
25663;SDS011;13522;50.018;20.014;2023-02-28T00:20:35;28.63;;;12.43;;
25663;SDS011;13522;50.018;20.014;2023-02-28T00:23:47;23.43;;;12.30;;
25663;SDS011;13522;50.018;20.014;2023-02-28T00:26:59;32.68;;;13.50;;
25663;SDS011;13522;50.018;20.014;2023-02-28T00:30:12;23.88;;;13.30;;
25663;SDS011;13522;50.018;20.014;2023-02-28T00:33:25;25.78;;;13.35;;
25663;SDS011;13522;50.018;20.014;2023-02-28T00:36:37;26.43;;;12.98;;
25663;SDS011;13522;50.018;20.014;2023-02-28T00:39:51;27.73;;;13.80;;
25663;SDS011;13522;50.018;20.014;2023-02-28T00:43:04;24.40;;;13.55;;
25663;SDS011;13522;50.018;20.014;2023-02-28T00:46:17;27.53;;;15.10;;
25663;SDS011;13522;50.018;20.014;2023-02-28T00:49:29;25.83;;;13.30;;
25663;SDS011;13522;50.018;20.014;2023-02-28T00:52:42;26.58;;;14.33;;
25663;SDS011;13522;50.018;20.014;2023-02-28T00:55:54;27.10;;;13.48;;
25663;SDS011;13522;50.018;20.014;2023-02-28T00:59:08;28.80;;;14.28;;
25663;SDS011;13522;50.018;20.014;2023-02-28T01:02:21;32.05;;;14.35;;
25663;SDS011;13522;50.018;20.014;2023-02-28T01:05:34;29.88;;;14.88;;
25663;SDS011;13522;50.018;20.014;2023-02-28T01:08:46;26.45;;;14.68;;
25663;SDS011;13522;50.018;20.014;2023-02-28T01:11:59;28.70;;;14.65;;
25663;SDS011;13522;50.018;20.014;2023-02-28T01:15:12;29.40;;;14.63;;
25663;SDS011;13522;50.018;20.014;2023-02-28T01:18:24;28.65;;;13.43;;
25663;SDS011;13522;50.018;20.014;2023-02-28T01:21:37;28.15;;;14.10;;
25663;SDS011;13522;50.018;20.014;2023-02-28T01:24:49;26.10;;;14.33;;
25663;SDS011;13522;50.018;20.014;2023-02-28T01:28:02;26.90;;;13.38;;
25663;SDS011;13522;50.018;20.014;2023-02-28T01:31:15;25.28;;;13.18;;
25663;SDS011;13522;50.018;20.014;2023-02-28T01:34:27;26.00;;;14.08;;
25663;SDS011;13522;50.018;20.014;2023-02-28T01:37:40;27.50;;;14.28;;
25663;SDS011;13522;50.018;20.014;2023-02-28T01:40:52;31.55;;;13.28;;
25663;SDS011;13522;50.018;20.014;2023-02-28T01:44:06;28.35;;;14.35;;
25663;SDS011;13522;50.018;20.014;2023-02-28T01:47:49;26.58;;;13.55;;
25663;SDS011;13522;50.018;20.014;2023-02-28T01:51:08;28.20;;;14.20;;
25663;SDS011;13522;50.018;20.014;2023-02-28T01:54:24;26.35;;;14.15;;
25663;SDS011;13522;50.018;20.014;2023-02-28T01:57:41;26.43;;;13.40;;
25663;SDS011;13522;50.018;20.014;2023-02-28T02:00:59;23.85;;;13.18;;
25663;SDS011;13522;50.018;20.014;2023-02-28T02:04:11;27.58;;;14.03;;
25663;SDS011;13522;50.018;20.014;2023-02-28T02:07:24;28.15;;;14.40;;
25663;SDS011;13522;50.018;20.014;2023-02-28T02:10:43;28.93;;;15.45;;
25663;SDS011;13522;50.018;20.014;2023-02-28T02:14:06;26.78;;;14.60;;
25663;SDS011;13522;50.018;20.014;2023-02-28T02:17:44;23.68;;;13.20;;
25663;SDS011;13522;50.018;20.014;2023-02-28T02:25:06;29.68;;;15.70;;
25663;SDS011;13522;50.018;20.014;2023-02-28T02:36:22;29.78;;;14.73;;
25663;SDS011;13522;50.018;20.014;2023-02-28T02:39:40;30.13;;;15.25;;
25663;SDS011;13522;50.018;20.014;2023-02-28T02:43:01;29.00;;;15.43;;
25663;SDS011;13522;50.018;20.014;2023-02-28T02:46:18;29.13;;;15.68;;
25663;SDS011;13522;50.018;20.014;2023-02-28T02:49:37;28.25;;;15.20;;
25663;SDS011;13522;50.018;20.014;2023-02-28T02:56:07;30.93;;;15.18;;
25663;SDS011;13522;50.018;20.014;2023-02-28T02:59:22;28.60;;;14.80;;
25663;SDS011;13522;50.018;20.014;2023-02-28T03:02:36;27.73;;;14.98;;
25663;SDS011;13522;50.018;20.014;2023-02-28T03:05:54;32.95;;;15.83;;
25663;SDS011;13522;50.018;20.014;2023-02-28T03:09:08;27.35;;;15.08;;
25663;SDS011;13522;50.018;20.014;2023-02-28T03:12:22;28.28;;;14.63;;
25663;SDS011;13522;50.018;20.014;2023-02-28T03:15:41;27.75;;;15.90;;
25663;SDS011;13522;50.018;20.014;2023-02-28T03:19:15;31.88;;;15.98;;
25663;SDS011;13522;50.018;20.014;2023-02-28T03:22:43;28.05;;;14.68;;
25663;SDS011;13522;50.018;20.014;2023-02-28T03:26:03;29.50;;;14.68;;
25663;SDS011;13522;50.018;20.014;2023-02-28T03:29:20;31.63;;;15.35;;
25663;SDS011;13522;50.018;20.014;2023-02-28T03:32:38;30.58;;;15.43;;
25663;SDS011;13522;50.018;20.014;2023-02-28T03:35:54;29.60;;;14.28;;
25663;SDS011;13522;50.018;20.014;2023-02-28T03:39:11;41.93;;;17.10;;
25663;SDS011;13522;50.018;20.014;2023-02-28T03:42:28;28.33;;;15.80;;
25663;SDS011;13522;50.018;20.014;2023-02-28T03:45:44;29.87;;;15.53;;
25663;SDS011;13522;50.018;20.014;2023-02-28T03:49:00;29.43;;;15.80;;
25663;SDS011;13522;50.018;20.014;2023-02-28T03:52:17;31.75;;;16.78;;
25663;SDS011;13522;50.018;20.014;2023-02-28T03:55:34;28.90;;;16.33;;
25663;SDS011;13522;50.018;20.014;2023-02-28T03:58:55;28.95;;;15.60;;
25663;SDS011;13522;50.018;20.014;2023-02-28T04:02:09;33.40;;;16.10;;
25663;SDS011;13522;50.018;20.014;2023-02-28T04:05:23;27.85;;;15.63;;
25663;SDS011;13522;50.018;20.014;2023-02-28T04:08:37;30.58;;;16.15;;
25663;SDS011;13522;50.018;20.014;2023-02-28T04:11:50;30.55;;;16.15;;
25663;SDS011;13522;50.018;20.014;2023-02-28T04:15:04;30.85;;;15.98;;
25663;SDS011;13522;50.018;20.014;2023-02-28T04:18:18;31.08;;;16.93;;
25663;SDS011;13522;50.018;20.014;2023-02-28T04:21:31;35.75;;;17.13;;
25663;SDS011;13522;50.018;20.014;2023-02-28T04:24:46;31.97;;;16.77;;
25663;SDS011;13522;50.018;20.014;2023-02-28T04:27:58;31.33;;;16.80;;
25663;SDS011;13522;50.018;20.014;2023-02-28T04:31:10;33.43;;;18.35;;
25663;SDS011;13522;50.018;20.014;2023-02-28T04:34:25;35.25;;;17.75;;
25663;SDS011;13522;50.018;20.014;2023-02-28T04:37:39;31.65;;;18.20;;
25663;SDS011;13522;50.018;20.014;2023-02-28T04:40:52;31.83;;;17.20;;
25663;SDS011;13522;50.018;20.014;2023-02-28T04:44:10;37.25;;;16.60;;
25663;SDS011;13522;50.018;20.014;2023-02-28T04:47:22;28.88;;;17.18;;
25663;SDS011;13522;50.018;20.014;2023-02-28T04:50:34;36.03;;;18.08;;
25663;SDS011;13522;50.018;20.014;2023-02-28T04:53:50;31.18;;;17.30;;
25663;SDS011;13522;50.018;20.014;2023-02-28T04:57:02;32.35;;;18.70;;
25663;SDS011;13522;50.018;20.014;2023-02-28T05:00:16;35.23;;;17.35;;
25663;SDS011;13522;50.018;20.014;2023-02-28T05:03:30;33.68;;;18.55;;
25663;SDS011;13522;50.018;20.014;2023-02-28T05:06:45;34.60;;;17.50;;
25663;SDS011;13522;50.018;20.014;2023-02-28T05:09:57;33.10;;;17.63;;
25663;SDS011;13522;50.018;20.014;2023-02-28T05:13:11;32.83;;;16.30;;
25663;SDS011;13522;50.018;20.014;2023-02-28T05:16:23;31.88;;;17.28;;
25663;SDS011;13522;50.018;20.014;2023-02-28T05:19:35;38.95;;;18.80;;
25663;SDS011;13522;50.018;20.014;2023-02-28T05:22:49;33.08;;;17.08;;
25663;SDS011;13522;50.018;20.014;2023-02-28T05:26:01;31.15;;;16.65;;
25663;SDS011;13522;50.018;20.014;2023-02-28T05:29:14;32.13;;;17.05;;
25663;SDS011;13522;50.018;20.014;2023-02-28T05:32:26;34.08;;;17.65;;
25663;SDS011;13522;50.018;20.014;2023-02-28T05:35:43;33.83;;;18.03;;
25663;SDS011;13522;50.018;20.014;2023-02-28T05:38:55;33.15;;;17.13;;
25663;SDS011;13522;50.018;20.014;2023-02-28T05:42:07;31.38;;;16.83;;
25663;SDS011;13522;50.018;20.014;2023-02-28T05:45:19;31.45;;;17.15;;
25663;SDS011;13522;50.018;20.014;2023-02-28T05:48:33;29.28;;;16.63;;
25663;SDS011;13522;50.018;20.014;2023-02-28T05:51:47;34.05;;;17.48;;
25663;SDS011;13522;50.018;20.014;2023-02-28T05:54:59;36.10;;;18.70;;
25663;SDS011;13522;50.018;20.014;2023-02-28T05:58:13;33.03;;;17.85;;
25663;SDS011;13522;50.018;20.014;2023-02-28T06:01:33;31.40;;;17.43;;
25663;SDS011;13522;50.018;20.014;2023-02-28T06:04:46;38.08;;;19.75;;
25663;SDS011;13522;50.018;20.014;2023-02-28T06:07:58;31.90;;;18.58;;
25663;SDS011;13522;50.018;20.014;2023-02-28T06:11:11;30.80;;;17.80;;
25663;SDS011;13522;50.018;20.014;2023-02-28T06:14:28;37.08;;;19.55;;
25663;SDS011;13522;50.018;20.014;2023-02-28T06:17:42;35.03;;;18.43;;
25663;SDS011;13522;50.018;20.014;2023-02-28T06:20:58;33.85;;;18.53;;
25663;SDS011;13522;50.018;20.014;2023-02-28T06:24:10;38.55;;;19.68;;
25663;SDS011;13522;50.018;20.014;2023-02-28T06:45:59;36.48;;;19.68;;
25663;SDS011;13522;50.018;20.014;2023-02-28T06:49:16;40.40;;;20.65;;
25663;SDS011;13522;50.018;20.014;2023-02-28T06:52:28;44.35;;;20.65;;
25663;SDS011;13522;50.018;20.014;2023-02-28T06:58:41;33.53;;;18.65;;
25663;SDS011;13522;50.018;20.014;2023-02-28T07:01:57;40.40;;;21.40;;
25663;SDS011;13522;50.018;20.014;2023-02-28T07:08:10;66.25;;;34.93;;
25663;SDS011;13522;50.018;20.014;2023-02-28T07:11:24;63.83;;;32.90;;
25663;SDS011;13522;50.018;20.014;2023-02-28T07:14:38;47.80;;;22.98;;
25663;SDS011;13522;50.018;20.014;2023-02-28T07:20:50;32.48;;;18.93;;
25663;SDS011;13522;50.018;20.014;2023-02-28T07:24:03;36.20;;;19.95;;
25663;SDS011;13522;50.018;20.014;2023-02-28T07:27:19;36.50;;;20.40;;
25663;SDS011;13522;50.018;20.014;2023-02-28T07:33:32;41.15;;;20.90;;
25663;SDS011;13522;50.018;20.014;2023-02-28T07:36:45;41.18;;;21.65;;
25663;SDS011;13522;50.018;20.014;2023-02-28T07:39:58;33.78;;;20.00;;
25663;SDS011;13522;50.018;20.014;2023-02-28T07:43:13;41.23;;;22.00;;
25663;SDS011;13522;50.018;20.014;2023-02-28T07:46:25;57.05;;;29.35;;
25663;SDS011;13522;50.018;20.014;2023-02-28T07:49:40;57.43;;;29.25;;
25663;SDS011;13522;50.018;20.014;2023-02-28T07:52:53;38.98;;;21.90;;
25663;SDS011;13522;50.018;20.014;2023-02-28T07:56:06;42.90;;;20.70;;
25663;SDS011;13522;50.018;20.014;2023-02-28T07:59:18;37.68;;;20.95;;
25663;SDS011;13522;50.018;20.014;2023-02-28T08:05:37;38.68;;;20.20;;
25663;SDS011;13522;50.018;20.014;2023-02-28T08:12:01;30.50;;;18.60;;
25663;SDS011;13522;50.018;20.014;2023-02-28T08:15:13;35.73;;;19.15;;
25663;SDS011;13522;50.018;20.014;2023-02-28T08:18:25;36.93;;;19.10;;
25663;SDS011;13522;50.018;20.014;2023-02-28T08:21:39;36.03;;;18.63;;
25663;SDS011;13522;50.018;20.014;2023-02-28T08:24:51;34.95;;;18.93;;
25663;SDS011;13522;50.018;20.014;2023-02-28T08:28:03;27.40;;;15.33;;
25663;SDS011;13522;50.018;20.014;2023-02-28T08:31:16;33.43;;;17.05;;
25663;SDS011;13522;50.018;20.014;2023-02-28T08:34:28;30.15;;;15.53;;
25663;SDS011;13522;50.018;20.014;2023-02-28T08:37:41;29.40;;;16.93;;
25663;SDS011;13522;50.018;20.014;2023-02-28T08:40:58;29.20;;;15.98;;
25663;SDS011;13522;50.018;20.014;2023-02-28T08:44:13;30.10;;;15.98;;
25663;SDS011;13522;50.018;20.014;2023-02-28T08:47:26;24.20;;;14.55;;
25663;SDS011;13522;50.018;20.014;2023-02-28T08:50:39;19.03;;;12.48;;
25663;SDS011;13522;50.018;20.014;2023-02-28T08:53:53;19.60;;;11.03;;
25663;SDS011;13522;50.018;20.014;2023-02-28T08:57:07;21.15;;;11.28;;
25663;SDS011;13522;50.018;20.014;2023-02-28T09:00:20;15.58;;;9.70;;
25663;SDS011;13522;50.018;20.014;2023-02-28T09:03:35;14.38;;;7.60;;
25663;SDS011;13522;50.018;20.014;2023-02-28T09:06:47;14.00;;;7.13;;
25663;SDS011;13522;50.018;20.014;2023-02-28T09:09:59;10.68;;;6.55;;
25663;SDS011;13522;50.018;20.014;2023-02-28T09:13:11;12.30;;;6.63;;
25663;SDS011;13522;50.018;20.014;2023-02-28T09:16:23;12.55;;;6.43;;
25663;SDS011;13522;50.018;20.014;2023-02-28T09:19:37;10.50;;;6.40;;
25663;SDS011;13522;50.018;20.014;2023-02-28T09:22:49;11.10;;;5.83;;
25663;SDS011;13522;50.018;20.014;2023-02-28T09:26:01;14.98;;;6.28;;
25663;SDS011;13522;50.018;20.014;2023-02-28T09:29:14;11.03;;;6.50;;
25663;SDS011;13522;50.018;20.014;2023-02-28T09:32:26;9.73;;;6.15;;
25663;SDS011;13522;50.018;20.014;2023-02-28T09:35:38;11.78;;;6.70;;
25663;SDS011;13522;50.018;20.014;2023-02-28T09:38:51;10.73;;;6.73;;
25663;SDS011;13522;50.018;20.014;2023-02-28T09:42:03;9.65;;;6.40;;
25663;SDS011;13522;50.018;20.014;2023-02-28T09:45:23;12.05;;;8.03;;
25663;SDS011;13522;50.018;20.014;2023-02-28T09:51:54;14.65;;;7.33;;
25663;SDS011;13522;50.018;20.014;2023-02-28T09:55:17;11.23;;;7.45;;
25663;SDS011;13522;50.018;20.014;2023-02-28T09:58:36;10.58;;;6.38;;
25663;SDS011;13522;50.018;20.014;2023-02-28T10:01:54;13.00;;;7.08;;
25663;SDS011;13522;50.018;20.014;2023-02-28T10:05:13;11.70;;;7.28;;
25663;SDS011;13522;50.018;20.014;2023-02-28T10:08:28;14.13;;;7.93;;
25663;SDS011;13522;50.018;20.014;2023-02-28T10:11:45;11.08;;;6.78;;
25663;SDS011;13522;50.018;20.014;2023-02-28T10:15:02;13.63;;;7.83;;
25663;SDS011;13522;50.018;20.014;2023-02-28T10:18:19;14.25;;;7.70;;
25663;SDS011;13522;50.018;20.014;2023-02-28T10:21:36;11.38;;;7.00;;
25663;SDS011;13522;50.018;20.014;2023-02-28T10:24:51;11.58;;;7.38;;
25663;SDS011;13522;50.018;20.014;2023-02-28T10:28:13;10.38;;;6.60;;
25663;SDS011;13522;50.018;20.014;2023-02-28T10:31:26;13.73;;;7.15;;
25663;SDS011;13522;50.018;20.014;2023-02-28T10:34:39;13.23;;;7.43;;
25663;SDS011;13522;50.018;20.014;2023-02-28T10:37:53;11.65;;;7.78;;
25663;SDS011;13522;50.018;20.014;2023-02-28T10:41:08;10.55;;;7.60;;
25663;SDS011;13522;50.018;20.014;2023-02-28T10:44:23;12.03;;;7.48;;
25663;SDS011;13522;50.018;20.014;2023-02-28T10:47:36;13.60;;;8.95;;
25663;SDS011;13522;50.018;20.014;2023-02-28T10:51:00;12.23;;;8.05;;
25663;SDS011;13522;50.018;20.014;2023-02-28T10:54:18;13.00;;;8.00;;
25663;SDS011;13522;50.018;20.014;2023-02-28T10:57:33;13.80;;;8.18;;
25663;SDS011;13522;50.018;20.014;2023-02-28T11:00:45;11.43;;;7.63;;
25663;SDS011;13522;50.018;20.014;2023-02-28T11:03:58;11.90;;;7.75;;
25663;SDS011;13522;50.018;20.014;2023-02-28T11:07:18;12.93;;;7.98;;
25663;SDS011;13522;50.018;20.014;2023-02-28T11:10:34;12.20;;;7.93;;
25663;SDS011;13522;50.018;20.014;2023-02-28T11:13:46;12.98;;;7.93;;
25663;SDS011;13522;50.018;20.014;2023-02-28T11:17:03;16.27;;;8.47;;
25663;SDS011;13522;50.018;20.014;2023-02-28T11:20:28;12.18;;;8.05;;
25663;SDS011;13522;50.018;20.014;2023-02-28T11:23:43;15.90;;;7.23;;
25663;SDS011;13522;50.018;20.014;2023-02-28T11:26:56;14.93;;;7.13;;
25663;SDS011;13522;50.018;20.014;2023-02-28T11:30:18;11.25;;;7.05;;
25663;SDS011;13522;50.018;20.014;2023-02-28T11:33:41;10.25;;;7.30;;
25663;SDS011;13522;50.018;20.014;2023-02-28T11:36:56;12.40;;;7.38;;
25663;SDS011;13522;50.018;20.014;2023-02-28T11:40:12;10.45;;;6.43;;
25663;SDS011;13522;50.018;20.014;2023-02-28T11:46:47;12.30;;;6.40;;
25663;SDS011;13522;50.018;20.014;2023-02-28T11:50:13;9.43;;;6.35;;
25663;SDS011;13522;50.018;20.014;2023-02-28T11:53:50;12.45;;;6.70;;
25663;SDS011;13522;50.018;20.014;2023-02-28T11:57:24;11.58;;;6.70;;
25663;SDS011;13522;50.018;20.014;2023-02-28T12:00:53;13.65;;;8.50;;
25663;SDS011;13522;50.018;20.014;2023-02-28T12:04:21;26.85;;;14.68;;
25663;SDS011;13522;50.018;20.014;2023-02-28T12:07:38;10.28;;;6.70;;
25663;SDS011;13522;50.018;20.014;2023-02-28T12:11:05;11.00;;;6.48;;
25663;SDS011;13522;50.018;20.014;2023-02-28T12:14:25;9.55;;;5.95;;
25663;SDS011;13522;50.018;20.014;2023-02-28T12:18:09;9.03;;;6.03;;
25663;SDS011;13522;50.018;20.014;2023-02-28T12:21:33;9.70;;;5.85;;
25663;SDS011;13522;50.018;20.014;2023-02-28T12:28:52;10.08;;;6.18;;
25663;SDS011;13522;50.018;20.014;2023-02-28T12:32:09;11.88;;;6.63;;
25663;SDS011;13522;50.018;20.014;2023-02-28T12:35:26;10.78;;;6.48;;
25663;SDS011;13522;50.018;20.014;2023-02-28T12:38:44;7.95;;;5.98;;
25663;SDS011;13522;50.018;20.014;2023-02-28T12:42:00;12.93;;;6.70;;
25663;SDS011;13522;50.018;20.014;2023-02-28T12:45:18;10.05;;;6.75;;
25663;SDS011;13522;50.018;20.014;2023-02-28T12:48:36;12.98;;;6.80;;
25663;SDS011;13522;50.018;20.014;2023-02-28T12:51:51;11.10;;;7.23;;
25663;SDS011;13522;50.018;20.014;2023-02-28T12:55:05;15.63;;;7.95;;
25663;SDS011;13522;50.018;20.014;2023-02-28T12:58:25;11.10;;;6.55;;
25663;SDS011;13522;50.018;20.014;2023-02-28T13:01:45;12.90;;;7.38;;
25663;SDS011;13522;50.018;20.014;2023-02-28T13:05:16;9.90;;;6.38;;
25663;SDS011;13522;50.018;20.014;2023-02-28T13:09:06;9.48;;;6.75;;
25663;SDS011;13522;50.018;20.014;2023-02-28T13:12:21;14.00;;;7.83;;
25663;SDS011;13522;50.018;20.014;2023-02-28T13:15:34;9.48;;;6.58;;
25663;SDS011;13522;50.018;20.014;2023-02-28T13:18:49;11.85;;;7.35;;
25663;SDS011;13522;50.018;20.014;2023-02-28T13:22:01;12.48;;;7.55;;
25663;SDS011;13522;50.018;20.014;2023-02-28T13:29:05;10.63;;;7.13;;
25663;SDS011;13522;50.018;20.014;2023-02-28T13:32:40;9.90;;;6.85;;
25663;SDS011;13522;50.018;20.014;2023-02-28T13:36:05;12.98;;;7.23;;
25663;SDS011;13522;50.018;20.014;2023-02-28T13:42:59;10.48;;;6.53;;
25663;SDS011;13522;50.018;20.014;2023-02-28T13:46:14;11.68;;;7.33;;
25663;SDS011;13522;50.018;20.014;2023-02-28T13:49:27;10.45;;;6.83;;
25663;SDS011;13522;50.018;20.014;2023-02-28T13:52:43;12.20;;;7.68;;
25663;SDS011;13522;50.018;20.014;2023-02-28T13:56:04;14.23;;;7.28;;
25663;SDS011;13522;50.018;20.014;2023-02-28T13:59:32;9.98;;;6.93;;
25663;SDS011;13522;50.018;20.014;2023-02-28T14:02:54;12.48;;;8.18;;
25663;SDS011;13522;50.018;20.014;2023-02-28T14:06:33;15.20;;;8.00;;
25663;SDS011;13522;50.018;20.014;2023-02-28T14:09:48;10.60;;;6.78;;
25663;SDS011;13522;50.018;20.014;2023-02-28T14:13:36;10.98;;;7.35;;
25663;SDS011;13522;50.018;20.014;2023-02-28T14:16:51;24.55;;;14.83;;
25663;SDS011;13522;50.018;20.014;2023-02-28T14:20:05;16.08;;;10.38;;
25663;SDS011;13522;50.018;20.014;2023-02-28T14:23:36;13.55;;;8.38;;
25663;SDS011;13522;50.018;20.014;2023-02-28T14:27:23;12.53;;;7.33;;
25663;SDS011;13522;50.018;20.014;2023-02-28T14:30:56;13.10;;;7.70;;
25663;SDS011;13522;50.018;20.014;2023-02-28T14:34:29;12.75;;;8.28;;
25663;SDS011;13522;50.018;20.014;2023-02-28T14:37:47;12.28;;;8.25;;
25663;SDS011;13522;50.018;20.014;2023-02-28T14:41:01;11.53;;;7.58;;
25663;SDS011;13522;50.018;20.014;2023-02-28T14:44:21;14.60;;;8.68;;
25663;SDS011;13522;50.018;20.014;2023-02-28T14:47:36;13.68;;;8.20;;
25663;SDS011;13522;50.018;20.014;2023-02-28T14:50:52;13.33;;;8.35;;
25663;SDS011;13522;50.018;20.014;2023-02-28T14:54:12;14.20;;;8.33;;
25663;SDS011;13522;50.018;20.014;2023-02-28T14:57:28;13.40;;;8.15;;
25663;SDS011;13522;50.018;20.014;2023-02-28T15:00:48;32.58;;;18.28;;
25663;SDS011;13522;50.018;20.014;2023-02-28T15:04:04;39.48;;;18.70;;
25663;SDS011;13522;50.018;20.014;2023-02-28T15:07:22;20.38;;;11.70;;
25663;SDS011;13522;50.018;20.014;2023-02-28T15:10:38;16.25;;;10.28;;
25663;SDS011;13522;50.018;20.014;2023-02-28T15:13:53;23.55;;;11.13;;
25663;SDS011;13522;50.018;20.014;2023-02-28T15:17:07;19.68;;;10.83;;
25663;SDS011;13522;50.018;20.014;2023-02-28T15:20:25;16.58;;;10.53;;
25663;SDS011;13522;50.018;20.014;2023-02-28T15:23:38;15.35;;;9.60;;
25663;SDS011;13522;50.018;20.014;2023-02-28T15:26:56;17.50;;;10.05;;
25663;SDS011;13522;50.018;20.014;2023-02-28T15:30:15;15.83;;;9.50;;
25663;SDS011;13522;50.018;20.014;2023-02-28T15:33:32;14.80;;;8.85;;
25663;SDS011;13522;50.018;20.014;2023-02-28T15:36:44;15.50;;;9.23;;
25663;SDS011;13522;50.018;20.014;2023-02-28T15:39:57;13.13;;;8.10;;
25663;SDS011;13522;50.018;20.014;2023-02-28T15:43:24;13.70;;;8.90;;
25663;SDS011;13522;50.018;20.014;2023-02-28T15:46:38;18.28;;;9.38;;
25663;SDS011;13522;50.018;20.014;2023-02-28T15:49:54;16.65;;;10.48;;
25663;SDS011;13522;50.018;20.014;2023-02-28T15:53:13;19.13;;;11.68;;
25663;SDS011;13522;50.018;20.014;2023-02-28T15:56:33;21.45;;;11.28;;
25663;SDS011;13522;50.018;20.014;2023-02-28T15:59:51;16.35;;;9.93;;
25663;SDS011;13522;50.018;20.014;2023-02-28T16:03:26;19.10;;;10.23;;
25663;SDS011;13522;50.018;20.014;2023-02-28T16:06:53;18.03;;;10.58;;
25663;SDS011;13522;50.018;20.014;2023-02-28T16:10:20;18.75;;;10.48;;
25663;SDS011;13522;50.018;20.014;2023-02-28T16:13:35;17.65;;;10.20;;
25663;SDS011;13522;50.018;20.014;2023-02-28T16:16:47;17.83;;;9.98;;
25663;SDS011;13522;50.018;20.014;2023-02-28T16:20:05;21.93;;;10.58;;
25663;SDS011;13522;50.018;20.014;2023-02-28T16:23:23;16.28;;;9.63;;
25663;SDS011;13522;50.018;20.014;2023-02-28T16:26:35;18.33;;;11.00;;
25663;SDS011;13522;50.018;20.014;2023-02-28T16:29:50;18.45;;;10.68;;
25663;SDS011;13522;50.018;20.014;2023-02-28T16:33:03;28.23;;;10.75;;
25663;SDS011;13522;50.018;20.014;2023-02-28T16:36:19;20.28;;;11.70;;
25663;SDS011;13522;50.018;20.014;2023-02-28T16:39:33;22.85;;;11.43;;
25663;SDS011;13522;50.018;20.014;2023-02-28T16:42:46;20.05;;;11.55;;
25663;SDS011;13522;50.018;20.014;2023-02-28T16:46:01;21.13;;;11.10;;
25663;SDS011;13522;50.018;20.014;2023-02-28T16:49:13;26.25;;;10.98;;
25663;SDS011;13522;50.018;20.014;2023-02-28T16:52:25;23.88;;;10.73;;
25663;SDS011;13522;50.018;20.014;2023-02-28T16:55:37;24.15;;;10.95;;
25663;SDS011;13522;50.018;20.014;2023-02-28T16:58:51;21.18;;;11.10;;
25663;SDS011;13522;50.018;20.014;2023-02-28T17:02:08;20.45;;;11.18;;
25663;SDS011;13522;50.018;20.014;2023-02-28T17:05:24;20.08;;;10.33;;
25663;SDS011;13522;50.018;20.014;2023-02-28T17:08:40;19.53;;;11.05;;
25663;SDS011;13522;50.018;20.014;2023-02-28T17:11:52;23.25;;;11.65;;
25663;SDS011;13522;50.018;20.014;2023-02-28T17:15:06;23.70;;;11.65;;
25663;SDS011;13522;50.018;20.014;2023-02-28T17:18:21;18.83;;;11.65;;
25663;SDS011;13522;50.018;20.014;2023-02-28T17:21:36;18.10;;;11.65;;
25663;SDS011;13522;50.018;20.014;2023-02-28T17:24:50;21.28;;;11.73;;
25663;SDS011;13522;50.018;20.014;2023-02-28T17:28:04;27.20;;;11.80;;
25663;SDS011;13522;50.018;20.014;2023-02-28T17:31:17;22.58;;;10.88;;
25663;SDS011;13522;50.018;20.014;2023-02-28T17:34:29;18.93;;;11.93;;
25663;SDS011;13522;50.018;20.014;2023-02-28T17:37:41;23.90;;;12.35;;
25663;SDS011;13522;50.018;20.014;2023-02-28T17:40:53;24.55;;;13.63;;
25663;SDS011;13522;50.018;20.014;2023-02-28T17:44:06;27.40;;;15.10;;
25663;SDS011;13522;50.018;20.014;2023-02-28T17:47:18;29.23;;;14.23;;
25663;SDS011;13522;50.018;20.014;2023-02-28T17:50:30;35.10;;;14.60;;
25663;SDS011;13522;50.018;20.014;2023-02-28T17:53:42;33.00;;;15.08;;
25663;SDS011;13522;50.018;20.014;2023-02-28T17:56:55;26.28;;;14.50;;
25663;SDS011;13522;50.018;20.014;2023-02-28T18:00:08;26.05;;;13.65;;
25663;SDS011;13522;50.018;20.014;2023-02-28T18:03:27;33.10;;;14.30;;
25663;SDS011;13522;50.018;20.014;2023-02-28T18:06:39;29.18;;;14.70;;
25663;SDS011;13522;50.018;20.014;2023-02-28T18:09:56;33.75;;;15.03;;
25663;SDS011;13522;50.018;20.014;2023-02-28T18:13:08;28.63;;;14.30;;
25663;SDS011;13522;50.018;20.014;2023-02-28T18:16:20;32.93;;;14.48;;
25663;SDS011;13522;50.018;20.014;2023-02-28T18:19:33;30.60;;;13.73;;
25663;SDS011;13522;50.018;20.014;2023-02-28T18:22:45;24.85;;;14.23;;
25663;SDS011;13522;50.018;20.014;2023-02-28T18:25:57;22.00;;;13.70;;
25663;SDS011;13522;50.018;20.014;2023-02-28T18:29:12;30.85;;;15.95;;
25663;SDS011;13522;50.018;20.014;2023-02-28T18:32:27;30.18;;;14.73;;
25663;SDS011;13522;50.018;20.014;2023-02-28T18:35:40;34.58;;;15.10;;
25663;SDS011;13522;50.018;20.014;2023-02-28T18:38:52;33.20;;;15.75;;
25663;SDS011;13522;50.018;20.014;2023-02-28T18:42:04;35.88;;;16.00;;
25663;SDS011;13522;50.018;20.014;2023-02-28T18:45:16;39.63;;;16.85;;
25663;SDS011;13522;50.018;20.014;2023-02-28T18:48:28;43.90;;;17.68;;
25663;SDS011;13522;50.018;20.014;2023-02-28T18:51:41;37.45;;;18.73;;
25663;SDS011;13522;50.018;20.014;2023-02-28T18:54:53;50.03;;;26.13;;
25663;SDS011;13522;50.018;20.014;2023-02-28T18:58:05;53.63;;;19.70;;
25663;SDS011;13522;50.018;20.014;2023-02-28T19:01:18;42.70;;;18.90;;
25663;SDS011;13522;50.018;20.014;2023-02-28T19:04:35;50.13;;;21.90;;
25663;SDS011;13522;50.018;20.014;2023-02-28T19:07:49;48.50;;;22.63;;
25663;SDS011;13522;50.018;20.014;2023-02-28T19:11:06;46.28;;;23.78;;
25663;SDS011;13522;50.018;20.014;2023-02-28T19:14:21;49.53;;;23.00;;
25663;SDS011;13522;50.018;20.014;2023-02-28T19:18:01;47.78;;;25.13;;
25663;SDS011;13522;50.018;20.014;2023-02-28T19:21:14;54.00;;;26.80;;
25663;SDS011;13522;50.018;20.014;2023-02-28T19:24:43;56.28;;;26.60;;
25663;SDS011;13522;50.018;20.014;2023-02-28T19:27:57;58.18;;;27.53;;
25663;SDS011;13522;50.018;20.014;2023-02-28T19:31:12;52.58;;;27.85;;
25663;SDS011;13522;50.018;20.014;2023-02-28T19:34:29;51.70;;;26.48;;
25663;SDS011;13522;50.018;20.014;2023-02-28T19:37:41;55.03;;;28.85;;
25663;SDS011;13522;50.018;20.014;2023-02-28T19:41:02;55.05;;;27.20;;
25663;SDS011;13522;50.018;20.014;2023-02-28T19:44:17;64.33;;;28.83;;
25663;SDS011;13522;50.018;20.014;2023-02-28T19:47:30;60.20;;;29.05;;
25663;SDS011;13522;50.018;20.014;2023-02-28T19:50:43;58.00;;;30.28;;
25663;SDS011;13522;50.018;20.014;2023-02-28T19:53:55;55.05;;;29.38;;
25663;SDS011;13522;50.018;20.014;2023-02-28T19:57:08;51.13;;;28.65;;
25663;SDS011;13522;50.018;20.014;2023-02-28T20:00:20;64.28;;;31.30;;
25663;SDS011;13522;50.018;20.014;2023-02-28T20:03:33;64.65;;;34.58;;
25663;SDS011;13522;50.018;20.014;2023-02-28T20:06:45;116.20;;;58.70;;